Time;durP1;ratioP1;P1;durP2;ratioP2;P2;SDS_P1;SDS_P2;PMS_P1;PMS_P2;Temp;Humidity;BMP_temperature;BMP_pressure;BME280_temperature;BME280_humidity;BME280_pressure;Samples;Min_cycle;Max_cycle;Signal;HPM_P1;HPM_P2
2024/04/03 00:00:45;;;;;;;1.60;0.45;;;10.40;99.90;;;;;;5053636;28;20048;-78
2024/04/03 00:03:11;;;;;;;1.35;0.38;;;10.40;99.90;;;;;;5023062;28;20044;-78
2024/04/03 00:05:38;;;;;;;1.83;0.55;;;10.40;99.90;;;;;;5039414;28;20048;-79
2024/04/03 00:08:04;;;;;;;1.08;0.30;;;10.40;99.90;;;;;;5036071;28;20044;-82
2024/04/03 00:10:31;;;;;;;1.55;0.50;;;10.40;99.90;;;;;;5039117;28;20044;-83
2024/04/03 00:12:57;;;;;;;2.00;0.57;;;10.40;99.90;;;;;;5038507;28;20052;-83
2024/04/03 00:15:24;;;;;;;1.33;0.40;;;10.40;99.90;;;;;;5066002;28;20049;-83
2024/04/03 00:17:54;;;;;;;2.15;0.70;;;10.40;99.90;;;;;;5048918;28;20052;-83
2024/04/03 00:20:21;;;;;;;3.28;1.45;;;10.40;99.90;;;;;;5063828;28;20052;-82
2024/04/03 00:22:47;;;;;;;3.65;1.63;;;10.40;99.90;;;;;;5039063;28;20043;-83
2024/04/03 00:25:14;;;;;;;2.85;1.27;;;10.40;99.90;;;;;;5039512;28;20116;-82
2024/04/03 00:27:40;;;;;;;3.25;1.10;;;10.40;99.90;;;;;;5056098;28;20082;-83
2024/04/03 00:30:07;;;;;;;3.22;1.55;;;10.40;99.90;;;;;;5053120;28;20058;-83
2024/04/03 00:32:34;;;;;;;2.53;1.20;;;10.40;99.90;;;;;;5038816;28;20067;-82
2024/04/03 00:35:01;;;;;;;3.75;1.20;;;10.40;99.90;;;;;;5068292;28;20469;-83
2024/04/03 00:37:29;;;;;;;2.80;1.20;;;10.30;99.90;;;;;;5045334;28;20076;-83
2024/04/03 00:39:56;;;;;;;5.25;1.50;;;10.30;99.90;;;;;;5058607;28;20051;-79
2024/04/03 00:42:24;;;;;;;2.10;1.30;;;10.30;99.90;;;;;;5044527;28;20032;-79
2024/04/03 00:44:50;;;;;;;3.13;1.50;;;10.30;99.90;;;;;;5067428;28;20044;-79
2024/04/03 00:47:17;;;;;;;3.83;1.77;;;10.30;99.90;;;;;;5028185;28;20530;-79
2024/04/03 00:49:44;;;;;;;3.42;1.75;;;10.40;99.90;;;;;;5029272;28;20618;-79
2024/04/03 00:52:15;;;;;;;6.60;1.98;;;10.40;99.90;;;;;;5037634;28;20407;-83
2024/04/03 00:54:42;;;;;;;3.47;1.48;;;10.40;99.90;;;;;;5051266;28;20114;-84
2024/04/03 00:57:09;;;;;;;2.67;1.35;;;10.40;99.90;;;;;;5050014;28;20040;-84
2024/04/03 00:59:35;;;;;;;3.72;1.77;;;10.40;99.90;;;;;;5039800;28;20052;-83
2024/04/03 01:02:01;;;;;;;3.33;1.52;;;10.40;99.90;;;;;;5044846;28;20627;-83
2024/04/03 01:04:28;;;;;;;3.80;1.55;;;10.40;99.90;;;;;;5040357;28;20431;-83
2024/04/03 01:06:54;;;;;;;3.17;1.45;;;10.40;99.90;;;;;;5038807;28;20098;-84
2024/04/03 01:09:20;;;;;;;2.75;1.25;;;10.40;99.90;;;;;;5038175;28;20534;-83
2024/04/03 01:11:46;;;;;;;2.58;1.20;;;10.40;99.90;;;;;;5038295;28;20044;-84
2024/04/03 01:14:14;;;;;;;1.90;1.08;;;10.40;99.90;;;;;;5052386;28;20081;-84
2024/04/03 01:16:42;;;;;;;2.40;1.00;;;10.40;99.90;;;;;;5034994;28;20053;-84
2024/04/03 01:19:08;;;;;;;2.50;1.20;;;10.40;99.90;;;;;;5035124;28;20058;-83
2024/04/03 01:21:35;;;;;;;2.15;1.20;;;10.40;99.90;;;;;;5037882;28;20052;-83
2024/04/03 01:24:01;;;;;;;3.38;0.88;;;10.40;99.90;;;;;;5002498;28;20503;-83
2024/04/03 01:26:27;;;;;;;3.63;1.42;;;10.40;99.90;;;;;;5022000;28;20071;-83
2024/04/03 01:28:53;;;;;;;2.30;1.13;;;10.40;99.90;;;;;;5040112;28;20052;-83
2024/04/03 01:31:19;;;;;;;2.65;1.05;;;10.40;99.90;;;;;;5045741;28;20410;-84
2024/04/03 01:33:46;;;;;;;3.20;1.48;;;10.40;99.90;;;;;;5087351;28;20064;-83
2024/04/03 01:36:12;;;;;;;1.85;0.80;;;10.40;99.90;;;;;;5065104;28;20523;-84
2024/04/03 01:38:38;;;;;;;1.77;0.93;;;10.40;99.90;;;;;;5050935;28;20043;-83
2024/04/03 01:41:04;;;;;;;1.65;0.70;;;10.40;99.90;;;;;;5050086;28;20496;-83
2024/04/03 01:43:30;;;;;;;2.22;0.90;;;10.40;99.90;;;;;;5039678;28;20056;-83
2024/04/03 01:46:00;;;;;;;1.92;0.90;;;10.40;99.90;;;;;;5044338;28;20067;-83
2024/04/03 01:48:26;;;;;;;1.38;0.52;;;10.30;99.90;;;;;;5058002;28;20044;-83
2024/04/03 01:50:52;;;;;;;1.25;0.52;;;10.30;99.90;;;;;;5044129;28;20048;-83
2024/04/03 01:53:18;;;;;;;1.38;0.50;;;10.30;99.90;;;;;;5047140;28;20124;-83
2024/04/03 01:55:55;;;;;;;1.27;0.60;;;10.30;99.90;;;;;;5054749;28;20408;-83
2024/04/03 01:58:22;;;;;;;0.90;0.40;;;10.40;99.90;;;;;;5038071;28;20045;-79
2024/04/03 02:00:49;;;;;;;1.67;0.40;;;10.40;99.90;;;;;;5043024;28;20041;-79
2024/04/03 02:03:16;;;;;;;1.20;0.55;;;10.30;99.90;;;;;;5043158;28;20051;-80
2024/04/03 02:05:46;;;;;;;1.67;0.52;;;10.40;99.90;;;;;;5065087;28;20447;-80
2024/04/03 02:08:13;;;;;;;1.13;0.50;;;10.40;99.90;;;;;;5010381;28;20048;-79
2024/04/03 02:10:40;;;;;;;1.42;0.60;;;10.40;99.90;;;;;;5041842;28;20033;-78
2024/04/03 02:13:06;;;;;;;1.40;0.50;;;10.40;99.90;;;;;;5063359;28;20036;-79
2024/04/03 02:15:32;;;;;;;2.30;1.13;;;10.40;99.90;;;;;;5045383;28;20567;-79
2024/04/03 02:17:58;;;;;;;2.88;1.50;;;10.40;99.90;;;;;;5053674;28;20130;-79
2024/04/03 02:20:24;;;;;;;1.67;0.98;;;10.30;99.90;;;;;;5047726;28;20048;-79
2024/04/03 02:22:51;;;;;;;2.13;0.80;;;10.30;99.90;;;;;;5071629;28;20039;-79
2024/04/03 02:25:17;;;;;;;1.75;0.60;;;10.30;99.90;;;;;;5037881;28;20041;-79
2024/04/03 02:27:44;;;;;;;2.38;1.02;;;10.30;99.90;;;;;;5037432;28;20036;-79
2024/04/03 02:30:10;;;;;;;1.00;0.50;;;10.30;99.90;;;;;;5026971;28;20087;-79
2024/04/03 02:32:37;;;;;;;2.55;0.70;;;10.30;99.90;;;;;;5063976;28;20053;-79
2024/04/03 02:35:03;;;;;;;1.25;0.57;;;10.30;99.90;;;;;;5048206;28;20055;-79
2024/04/03 02:37:30;;;;;;;1.88;0.75;;;10.30;99.90;;;;;;5058854;28;20055;-79
2024/04/03 02:39:55;;;;;;;1.35;0.40;;;10.30;99.90;;;;;;5076840;28;20043;-79
2024/04/03 02:42:23;;;;;;;2.90;0.60;;;10.30;99.90;;;;;;5050559;28;20033;-79
2024/04/03 02:44:49;;;;;;;1.70;0.52;;;10.30;99.90;;;;;;5043008;28;20053;-79
2024/04/03 02:47:15;;;;;;;2.55;0.65;;;10.30;99.90;;;;;;5049364;28;20499;-79
2024/04/03 02:49:41;;;;;;;0.80;0.30;;;10.30;99.90;;;;;;5060350;28;20032;-79
2024/04/03 02:52:07;;;;;;;1.55;0.50;;;10.30;99.90;;;;;;5052616;28;20135;-80
2024/04/03 02:54:33;;;;;;;1.35;0.50;;;10.30;99.90;;;;;;5062580;28;20040;-79
2024/04/03 02:56:59;;;;;;;0.55;0.30;;;10.30;99.90;;;;;;5047288;28;20052;-80
2024/04/03 02:59:25;;;;;;;0.50;0.28;;;10.30;99.90;;;;;;5039459;28;20095;-79
2024/04/03 03:01:52;;;;;;;0.82;0.30;;;10.30;99.90;;;;;;5022031;28;20496;-80
2024/04/03 03:04:21;;;;;;;1.20;0.38;;;10.30;99.90;;;;;;5040931;28;20037;-80
2024/04/03 03:06:47;;;;;;;0.60;0.30;;;10.20;99.90;;;;;;5046502;28;20045;-80
2024/04/03 03:09:14;;;;;;;0.73;0.30;;;10.20;99.90;;;;;;5058525;28;20082;-80
2024/04/03 03:11:40;;;;;;;2.17;0.40;;;10.30;99.90;;;;;;5042412;28;20055;-80
2024/04/03 03:14:06;;;;;;;0.82;0.30;;;10.20;99.90;;;;;;5043484;28;20067;-80
2024/04/03 03:16:32;;;;;;;0.70;0.20;;;10.20;99.90;;;;;;5046790;28;20045;-80
2024/04/03 03:18:58;;;;;;;0.77;0.22;;;10.20;99.90;;;;;;5052337;28;20044;-80
2024/04/03 03:21:24;;;;;;;0.77;0.22;;;10.20;99.90;;;;;;5044523;28;20407;-80
2024/04/03 03:23:50;;;;;;;0.73;0.30;;;10.20;99.90;;;;;;5050709;28;20466;-80
2024/04/03 03:26:16;;;;;;;0.45;0.20;;;10.20;99.90;;;;;;5043933;28;20052;-80
2024/04/03 03:28:42;;;;;;;0.40;0.10;;;10.20;99.90;;;;;;5039839;28;20139;-80
2024/04/03 03:31:08;;;;;;;0.70;0.25;;;10.10;99.90;;;;;;5023530;28;20123;-81
2024/04/03 03:33:35;;;;;;;1.20;0.25;;;10.10;99.90;;;;;;5038824;28;20056;-80
2024/04/03 03:36:01;;;;;;;0.73;0.30;;;10.10;99.90;;;;;;5046283;28;20549;-81
2024/04/03 03:38:27;;;;;;;2.80;0.40;;;10.20;99.90;;;;;;5045116;28;20040;-80
2024/04/03 03:40:54;;;;;;;1.52;0.30;;;10.20;99.90;;;;;;5019769;28;20041;-80
2024/04/03 03:43:20;;;;;;;1.42;0.30;;;10.20;99.90;;;;;;5065509;28;20036;-80
2024/04/03 03:45:51;;;;;;;1.27;0.52;;;10.10;99.90;;;;;;5023123;28;20047;-80
2024/04/03 03:54:03;;;;;;;1.70;0.50;;;10.10;99.90;;;;;;5063775;28;20116;-80
2024/04/03 03:56:29;;;;;;;1.20;0.63;;;10.20;99.90;;;;;;5075606;28;20063;-81
2024/04/03 03:58:55;;;;;;;0.52;0.30;;;10.10;99.90;;;;;;5025172;28;20068;-81
2024/04/03 04:01:21;;;;;;;0.98;0.30;;;10.20;99.90;;;;;;5046811;28;20120;-80
2024/04/03 04:03:47;;;;;;;0.80;0.30;;;10.10;99.90;;;;;;5043182;28;20102;-80
2024/04/03 04:06:13;;;;;;;1.73;0.65;;;10.10;99.90;;;;;;5039930;28;20382;-80
2024/04/03 04:08:39;;;;;;;1.52;0.45;;;10.20;99.90;;;;;;5038965;28;20078;-80
2024/04/03 04:11:05;;;;;;;1.58;0.40;;;10.20;99.90;;;;;;5039050;28;20036;-81
2024/04/03 04:13:31;;;;;;;0.55;0.30;;;10.20;99.90;;;;;;5035868;28;20033;-80
2024/04/03 04:16:01;;;;;;;0.73;0.30;;;10.20;99.90;;;;;;5034768;28;20492;-80
2024/04/03 04:18:29;;;;;;;1.17;0.60;;;10.20;99.90;;;;;;5054207;28;20504;-81
2024/04/03 04:20:58;;;;;;;0.50;0.20;;;10.20;99.90;;;;;;5028323;28;20447;-81
2024/04/03 04:23:25;;;;;;;0.77;0.30;;;10.20;99.90;;;;;;5038800;28;20045;-80
2024/04/03 04:26:07;;;;;;;1.48;0.52;;;10.20;99.90;;;;;;5038827;28;20078;-81
2024/04/03 04:28:34;;;;;;;0.63;0.25;;;10.20;99.90;;;;;;5054806;28;20041;-80
2024/04/03 04:31:04;;;;;;;0.43;0.20;;;10.20;99.90;;;;;;5055411;28;20450;-80
2024/04/03 04:33:35;;;;;;;1.42;0.50;;;10.20;99.90;;;;;;5046409;28;20098;-80
2024/04/03 04:36:01;;;;;;;1.10;0.40;;;10.20;99.90;;;;;;5060871;28;20078;-80
2024/04/03 04:38:28;;;;;;;0.73;0.60;;;10.20;99.90;;;;;;5043782;28;20094;-81
2024/04/03 04:40:54;;;;;;;0.73;0.30;;;10.20;99.90;;;;;;5038812;28;20052;-80
2024/04/03 04:43:20;;;;;;;1.75;0.40;;;10.20;99.90;;;;;;5038553;28;20519;-80
2024/04/03 04:45:46;;;;;;;2.08;0.52;;;10.20;99.90;;;;;;5038369;28;20508;-80
2024/04/03 04:48:12;;;;;;;1.25;0.40;;;10.20;99.90;;;;;;5061423;28;20045;-80
2024/04/03 04:50:38;;;;;;;0.63;0.30;;;10.20;99.90;;;;;;5055484;28;20081;-80
2024/04/03 04:53:04;;;;;;;1.33;0.30;;;10.10;99.90;;;;;;5034973;28;20044;-80
2024/04/03 04:55:30;;;;;;;0.60;0.20;;;10.10;99.90;;;;;;5030490;28;20494;-80
2024/04/03 04:57:59;;;;;;;0.63;0.30;;;10.10;99.90;;;;;;5035098;28;20044;-80
2024/04/03 05:00:25;;;;;;;0.90;0.30;;;10.20;99.90;;;;;;5046726;28;20055;-80
2024/04/03 05:02:51;;;;;;;1.27;0.50;;;10.20;99.90;;;;;;5022268;28;20127;-81
2024/04/03 05:05:17;;;;;;;1.58;0.40;;;10.20;99.90;;;;;;5034950;28;20041;-81
2024/04/03 05:07:43;;;;;;;1.20;0.45;;;10.20;99.90;;;;;;5034553;28;20112;-80
2024/04/03 05:10:09;;;;;;;1.38;0.40;;;10.20;99.90;;;;;;5033704;28;20041;-80
2024/04/03 05:12:35;;;;;;;0.93;0.30;;;10.20;99.90;;;;;;5038605;28;20048;-80
2024/04/03 05:15:02;;;;;;;0.90;0.40;;;10.10;99.90;;;;;;5045793;28;20580;-80
2024/04/03 05:17:28;;;;;;;1.23;0.52;;;10.20;99.90;;;;;;5034939;28;20057;-80
2024/04/03 05:19:54;;;;;;;1.25;0.40;;;10.20;99.90;;;;;;5050889;28;20040;-80
2024/04/03 05:22:20;;;;;;;1.10;0.40;;;10.20;99.90;;;;;;5047431;28;20532;-80
2024/04/03 05:24:51;;;;;;;1.52;0.38;;;10.10;99.90;;;;;;5020221;28;20124;-80
2024/04/03 05:27:17;;;;;;;2.03;0.40;;;10.20;99.90;;;;;;5029158;28;20045;-80
2024/04/03 05:29:43;;;;;;;1.58;0.52;;;10.20;99.90;;;;;;5038364;28;20040;-79
2024/04/03 05:32:09;;;;;;;1.20;0.50;;;10.20;99.90;;;;;;5037744;28;20048;-80
2024/04/03 05:34:35;;;;;;;1.63;0.60;;;10.20;99.90;;;;;;5034665;28;20055;-80
2024/04/03 05:37:01;;;;;;;2.10;0.45;;;10.20;99.90;;;;;;5049201;28;20482;-80
2024/04/03 05:39:28;;;;;;;1.25;0.60;;;10.20;99.90;;;;;;5053333;28;20110;-81
2024/04/03 05:41:54;;;;;;;1.10;0.50;;;10.10;99.90;;;;;;5046349;28;20055;-80
2024/04/03 05:44:20;;;;;;;3.28;0.32;;;10.20;99.90;;;;;;5067230;28;20048;-81
2024/04/03 05:46:46;;;;;;;0.60;0.30;;;10.20;99.90;;;;;;5049725;28;20037;-80
2024/04/03 05:49:12;;;;;;;1.13;0.40;;;10.20;99.90;;;;;;5056072;28;20037;-81
2024/04/03 05:51:38;;;;;;;1.77;0.38;;;10.20;99.90;;;;;;5025373;28;20043;-81
2024/04/03 05:54:04;;;;;;;1.25;0.30;;;10.20;99.90;;;;;;5048005;28;20090;-81
2024/04/03 05:56:30;;;;;;;1.35;0.30;;;10.20;99.90;;;;;;5052188;28;20526;-81
2024/04/03 05:58:56;;;;;;;1.60;0.38;;;10.30;99.90;;;;;;5046384;28;20041;-80
2024/04/03 06:01:22;;;;;;;0.98;0.32;;;10.20;99.90;;;;;;5045143;28;20052;-80
2024/04/03 06:03:48;;;;;;;0.88;0.30;;;10.20;99.90;;;;;;5035051;28;20056;-80
2024/04/03 06:06:14;;;;;;;2.95;0.50;;;10.20;99.90;;;;;;5038445;28;20119;-80
2024/04/03 06:08:40;;;;;;;1.67;0.50;;;10.20;99.90;;;;;;5037176;28;20101;-80
2024/04/03 06:11:07;;;;;;;3.63;0.60;;;10.20;99.90;;;;;;5043833;28;20056;-80
2024/04/03 06:13:33;;;;;;;1.77;0.50;;;10.20;99.90;;;;;;5041604;28;20044;-80
2024/04/03 06:15:59;;;;;;;1.88;0.60;;;10.20;99.90;;;;;;5041015;28;20082;-81
2024/04/03 06:18:26;;;;;;;1.67;0.60;;;10.20;99.90;;;;;;5049846;28;20045;-81
2024/04/03 06:20:52;;;;;;;1.35;0.50;;;10.30;99.90;;;;;;5037758;28;20132;-80
2024/04/03 06:23:17;;;;;;;3.88;0.50;;;10.30;99.90;;;;;;5038235;28;20059;-81
2024/04/03 06:25:43;;;;;;;2.80;0.70;;;10.30;99.90;;;;;;5057585;28;20047;-80
2024/04/03 06:28:10;;;;;;;2.83;0.40;;;10.30;99.90;;;;;;5040812;28;20094;-80
2024/04/03 06:30:36;;;;;;;0.90;0.50;;;10.40;99.90;;;;;;5040479;28;20049;-81
2024/04/03 06:33:02;;;;;;;1.40;0.50;;;10.40;99.90;;;;;;5033322;28;20052;-82
2024/04/03 06:35:28;;;;;;;2.35;0.65;;;10.40;99.90;;;;;;5023104;28;20135;-79
2024/04/03 06:37:54;;;;;;;3.00;1.20;;;10.50;99.90;;;;;;5031406;28;20048;-79
2024/04/03 06:40:20;;;;;;;2.60;0.80;;;10.50;99.90;;;;;;5064100;28;20530;-79
2024/04/03 06:42:46;;;;;;;2.20;0.65;;;10.50;99.90;;;;;;5037290;28;20051;-81
2024/04/03 06:45:12;;;;;;;3.30;0.60;;;10.60;99.90;;;;;;5037762;28;20615;-79
2024/04/03 06:47:38;;;;;;;1.83;0.50;;;10.60;99.90;;;;;;5052782;28;20058;-80
2024/04/03 06:50:04;;;;;;;3.10;0.60;;;10.60;99.90;;;;;;5048214;28;20109;-80
2024/04/03 06:52:30;;;;;;;2.55;0.85;;;10.60;99.90;;;;;;5046674;28;20405;-80
2024/04/03 06:54:56;;;;;;;1.55;0.60;;;10.60;99.90;;;;;;5051882;28;20096;-80
2024/04/03 06:57:23;;;;;;;1.73;0.57;;;10.70;99.90;;;;;;5046750;28;20037;-85
2024/04/03 06:59:49;;;;;;;2.75;0.80;;;10.70;99.90;;;;;;5035669;28;20403;-85
2024/04/03 07:02:15;;;;;;;2.15;0.60;;;10.80;99.90;;;;;;5040457;28;20086;-84
2024/04/03 07:04:41;;;;;;;1.38;0.52;;;10.80;99.90;;;;;;5050666;28;20055;-85
2024/04/03 07:07:08;;;;;;;3.50;0.80;;;10.90;99.90;;;;;;5037620;28;20052;-85
2024/04/03 07:09:35;;;;;;;2.67;0.75;;;10.90;99.90;;;;;;5056255;28;20090;-84
2024/04/03 07:12:04;;;;;;;1.17;0.50;;;10.90;99.90;;;;;;5042120;28;20049;-81
2024/04/03 07:14:30;;;;;;;1.65;0.55;;;10.90;99.90;;;;;;5072929;28;20082;-79
2024/04/03 07:16:56;;;;;;;2.08;0.60;;;11.00;99.90;;;;;;5029660;28;20052;-79
2024/04/03 07:19:22;;;;;;;3.08;0.70;;;11.00;99.90;;;;;;5054291;28;20043;-80
2024/04/03 07:21:48;;;;;;;1.30;0.40;;;11.00;99.90;;;;;;5053636;28;20039;-80
2024/04/03 07:24:14;;;;;;;2.78;0.60;;;10.90;99.90;;;;;;5048498;28;20036;-85
2024/04/03 07:26:40;;;;;;;3.75;0.90;;;10.90;99.90;;;;;;5065832;28;20041;-85
2024/04/03 07:29:11;;;;;;;1.90;0.52;;;10.90;99.90;;;;;;5046870;28;20089;-85
2024/04/03 07:31:38;;;;;;;2.90;0.60;;;11.00;99.90;;;;;;5045757;28;20047;-84
2024/04/03 07:34:04;;;;;;;0.98;0.30;;;11.00;99.90;;;;;;5023486;28;20065;-86
2024/04/03 07:36:30;;;;;;;0.88;0.20;;;11.00;99.90;;;;;;5036607;28;20084;-84
2024/04/03 07:38:56;;;;;;;0.95;0.32;;;11.10;99.90;;;;;;5048129;28;20079;-84
2024/04/03 07:41:24;;;;;;;0.90;0.22;;;11.10;99.90;;;;;;5045620;28;20135;-84
2024/04/03 07:43:52;;;;;;;1.27;0.43;;;11.20;99.90;;;;;;5041140;28;20412;-95
2024/04/03 07:46:18;;;;;;;2.28;0.50;;;11.20;99.90;;;;;;5039526;28;20048;-95
2024/04/03 07:48:44;;;;;;;0.73;0.30;;;11.20;99.90;;;;;;5022259;28;20139;-95
2024/04/03 07:51:10;;;;;;;1.60;0.40;;;11.20;99.90;;;;;;5021671;28;20140;-94
2024/04/03 07:53:36;;;;;;;1.48;0.40;;;11.10;99.90;;;;;;5038516;28;20064;-94
2024/04/03 07:56:03;;;;;;;1.92;0.50;;;11.10;99.90;;;;;;5049155;28;20040;-94
2024/04/03 07:58:30;;;;;;;3.38;0.88;;;11.10;99.90;;;;;;5028837;28;20048;-95
2024/04/03 08:01:00;;;;;;;1.70;0.60;;;11.10;99.90;;;;;;5074190;28;20440;-93
2024/04/03 08:03:27;;;;;;;3.50;0.50;;;11.10;99.90;;;;;;5041065;28;20048;-94
2024/04/03 08:05:54;;;;;;;1.60;0.60;;;11.10;99.90;;;;;;5041564;28;20075;-93
2024/04/03 08:08:23;;;;;;;2.85;0.85;;;11.10;99.90;;;;;;5041296;28;20041;-94
2024/04/03 08:10:50;;;;;;;3.20;0.90;;;11.00;99.90;;;;;;5053790;28;20496;-93
2024/04/03 08:13:16;;;;;;;2.13;0.60;;;11.00;99.90;;;;;;5074320;28;20105;-92
2024/04/03 08:15:42;;;;;;;2.92;0.55;;;11.00;99.90;;;;;;5066096;28;20044;-89
2024/04/03 08:18:08;;;;;;;1.73;0.52;;;11.00;99.90;;;;;;5024291;28;20101;-91
2024/04/03 08:20:34;;;;;;;2.50;0.40;;;11.10;99.90;;;;;;5071568;28;20487;-91
2024/04/03 08:23:00;;;;;;;1.42;0.43;;;11.10;99.90;;;;;;5027830;28;20059;-92
2024/04/03 08:25:26;;;;;;;1.65;0.40;;;11.10;99.90;;;;;;5051659;28;20510;-90
2024/04/03 08:27:54;;;;;;;3.33;0.50;;;11.10;99.90;;;;;;5041108;28;20045;-91
2024/04/03 08:30:21;;;;;;;2.28;0.57;;;11.10;99.90;;;;;;5054025;28;20136;-91
2024/04/03 08:32:48;;;;;;;1.73;0.40;;;11.10;99.90;;;;;;5077156;28;20052;-91
2024/04/03 08:35:14;;;;;;;1.67;0.38;;;11.10;99.90;;;;;;5058012;28;20043;-91
2024/04/03 08:37:40;;;;;;;1.60;0.52;;;11.10;99.90;;;;;;5059814;28;20388;-92
2024/04/03 08:40:10;;;;;;;1.38;0.43;;;11.10;99.90;;;;;;5027907;28;20045;-83
2024/04/03 08:42:36;;;;;;;1.95;0.60;;;11.10;99.90;;;;;;5055232;28;20419;-83
2024/04/03 08:45:03;;;;;;;1.85;0.57;;;11.10;99.90;;;;;;5038574;28;20041;-83
2024/04/03 08:47:33;;;;;;;2.15;0.60;;;11.10;99.90;;;;;;5057426;28;20037;-94
2024/04/03 08:50:00;;;;;;;2.35;0.93;;;11.10;99.90;;;;;;5040919;28;20072;-96
2024/04/03 08:52:29;;;;;;;2.83;0.90;;;11.10;99.90;;;;;;5041352;28;20131;-96
2024/04/03 08:55:02;;;;;;;3.08;0.70;;;11.10;99.90;;;;;;5045947;28;20037;-96
2024/04/03 08:57:29;;;;;;;1.25;0.45;;;11.10;99.90;;;;;;5040731;28;20055;-96
2024/04/03 08:59:57;;;;;;;1.50;0.60;;;11.10;99.90;;;;;;5041270;28;20464;-96
2024/04/03 09:02:23;;;;;;;1.80;0.50;;;11.10;99.90;;;;;;5044041;28;20071;-95
2024/04/03 09:04:49;;;;;;;2.22;0.90;;;11.20;99.90;;;;;;5041817;28;20055;-96
2024/04/03 09:07:19;;;;;;;1.48;0.70;;;11.20;99.90;;;;;;5057820;28;20040;-94
2024/04/03 09:09:45;;;;;;;3.28;1.10;;;11.20;99.90;;;;;;5043971;28;20044;-95
2024/04/03 09:12:12;;;;;;;2.15;0.75;;;11.20;99.90;;;;;;5043152;28;20070;-96
2024/04/03 09:14:38;;;;;;;3.65;1.17;;;11.10;99.90;;;;;;5042876;28;20041;-96
2024/04/03 09:17:05;;;;;;;3.47;1.13;;;11.10;99.90;;;;;;5045372;28;20063;-95
2024/04/03 09:19:33;;;;;;;3.13;1.00;;;11.10;99.90;;;;;;5061949;28;20045;-87
2024/04/03 09:22:01;;;;;;;4.75;1.23;;;11.10;99.90;;;;;;5042439;28;20187;-79
2024/04/03 09:24:31;;;;;;;2.53;0.65;;;11.10;99.90;;;;;;5058871;28;20404;-80
2024/04/03 09:26:58;;;;;;;4.30;1.15;;;11.10;99.90;;;;;;5060778;28;20047;-80
2024/04/03 09:29:25;;;;;;;3.38;0.80;;;11.10;99.90;;;;;;5038916;28;20048;-80
2024/04/03 09:32:00;;;;;;;1.80;0.65;;;11.20;99.90;;;;;;5040899;28;20049;-80
2024/04/03 09:34:28;;;;;;;1.77;0.70;;;11.20;99.90;;;;;;5058696;28;20059;-79
2024/04/03 09:36:56;;;;;;;1.48;0.70;;;11.20;99.90;;;;;;5050759;28;20101;-79
2024/04/03 09:39:24;;;;;;;5.65;0.90;;;11.20;99.90;;;;;;5048931;28;20089;-80
2024/04/03 09:41:50;;;;;;;3.50;0.88;;;11.20;99.90;;;;;;5041928;28;20525;-80
2024/04/03 09:44:19;;;;;;;2.08;0.95;;;11.20;99.90;;;;;;5044544;28;20044;-80
2024/04/03 09:46:58;;;;;;;1.95;0.60;;;11.20;99.90;;;;;;5059110;28;20502;-82
2024/04/03 09:49:27;;;;;;;2.67;0.75;;;11.20;99.90;;;;;;5049569;28;20041;-82
2024/04/03 09:51:56;;;;;;;1.58;0.73;;;11.30;99.90;;;;;;5041680;28;20052;-82
2024/04/03 09:54:26;;;;;;;2.50;0.98;;;11.30;99.90;;;;;;5038289;28;20041;-81
2024/04/03 09:56:53;;;;;;;3.08;1.08;;;11.40;99.90;;;;;;5033922;28;20420;-84
2024/04/03 09:59:20;;;;;;;2.22;0.80;;;11.40;99.90;;;;;;5041805;28;20492;-82
2024/04/03 10:01:49;;;;;;;3.05;0.90;;;11.50;99.90;;;;;;5041928;28;20037;-83
2024/04/03 10:04:15;;;;;;;2.05;1.02;;;11.50;99.90;;;;;;5049822;28;20055;-83
2024/04/03 10:06:44;;;;;;;2.25;0.75;;;11.60;99.90;;;;;;5038065;28;20045;-82
2024/04/03 10:09:15;;;;;;;3.72;1.00;;;11.70;99.90;;;;;;5057118;28;20551;-86
2024/04/03 10:11:47;;;;;;;4.07;0.90;;;11.70;99.90;;;;;;5053338;28;20062;-82
2024/04/03 10:14:32;;;;;;;2.20;0.80;;;11.70;99.90;;;;;;5057959;28;20051;-82
2024/04/03 10:16:58;;;;;;;1.95;0.60;;;11.60;99.90;;;;;;5041661;28;20041;-85
2024/04/03 10:19:31;;;;;;;3.55;0.80;;;11.70;99.90;;;;;;5052657;28;20045;-86
2024/04/03 10:22:01;;;;;;;;;;;11.70;99.90;;;;;;5048987;28;20044;-85
2024/04/03 10:24:30;;;;;;;2.20;1.23;;;11.70;99.90;;;;;;5036398;28;19920;-83
2024/04/03 10:27:19;;;;;;;2.15;0.70;;;11.80;99.90;;;;;;5049076;28;20067;-87
2024/04/03 10:29:46;;;;;;;4.15;1.02;;;11.80;99.90;;;;;;5061051;28;20519;-83
2024/04/03 10:32:15;;;;;;;1.45;0.60;;;12.00;99.90;;;;;;5056270;28;20040;-84
2024/04/03 10:34:41;;;;;;;1.55;0.70;;;12.10;99.90;;;;;;5044344;28;20048;-84
2024/04/03 10:37:10;;;;;;;2.05;0.80;;;12.30;99.90;;;;;;5051833;28;20546;-84
2024/04/03 10:39:43;;;;;;;2.17;0.80;;;12.60;99.90;;;;;;5037664;28;20501;-88
2024/04/03 10:42:10;;;;;;;2.00;0.70;;;12.80;99.90;;;;;;5044361;28;20048;-83
2024/04/03 10:44:41;;;;;;;2.53;0.77;;;12.90;99.90;;;;;;5045090;28;20502;-94
2024/04/03 10:47:09;;;;;;;2.33;0.98;;;12.80;99.90;;;;;;5062652;28;20044;-91
2024/04/03 10:49:36;;;;;;;2.35;0.77;;;12.80;99.90;;;;;;5047349;28;20040;-91
2024/04/03 10:52:02;;;;;;;2.08;0.60;;;12.70;99.90;;;;;;5078129;28;20048;-93
2024/04/03 10:54:41;;;;;;;1.70;0.80;;;12.70;99.90;;;;;;5043122;28;20051;-96
2024/04/03 10:57:12;;;;;;;2.50;0.80;;;12.80;99.90;;;;;;5062974;28;20060;-92
2024/04/03 10:59:38;;;;;;;1.80;1.00;;;12.90;99.90;;;;;;5042245;28;20040;-92
2024/04/03 11:02:14;;;;;;;2.70;0.80;;;12.90;99.90;;;;;;5041062;28;20040;-87
2024/04/03 11:04:40;;;;;;;1.05;0.63;;;13.00;99.90;;;;;;5058342;28;20386;-89
2024/04/03 11:07:08;;;;;;;1.58;0.65;;;13.00;99.90;;;;;;5050930;28;20083;-91
2024/04/03 11:09:34;;;;;;;3.97;0.80;;;13.10;99.90;;;;;;5052483;28;20045;-90
2024/04/03 11:12:01;;;;;;;1.48;0.65;;;13.00;99.90;;;;;;5036304;28;20072;-90
2024/04/03 11:14:27;;;;;;;2.10;0.90;;;13.00;99.90;;;;;;5042447;28;20396;-87
2024/04/03 11:16:53;;;;;;;3.63;0.80;;;13.00;99.90;;;;;;5037531;28;20052;-89
2024/04/03 11:19:19;;;;;;;2.55;0.90;;;12.90;99.90;;;;;;5036333;28;20080;-88
2024/04/03 11:21:46;;;;;;;2.25;0.90;;;12.80;99.90;;;;;;5041967;28;20052;-93
2024/04/03 11:24:12;;;;;;;2.88;0.93;;;12.80;99.90;;;;;;5035834;28;20037;-89
2024/04/03 11:26:42;;;;;;;2.63;0.80;;;12.80;99.90;;;;;;5038645;28;20173;-92
2024/04/03 11:29:26;;;;;;;2.47;0.90;;;12.80;99.90;;;;;;5036945;28;20063;-88
2024/04/03 11:31:52;;;;;;;1.98;0.90;;;12.80;99.90;;;;;;5068924;28;20094;-91
2024/04/03 11:34:18;;;;;;;1.42;0.70;;;12.80;99.90;;;;;;5070083;28;20044;-89
2024/04/03 11:36:48;;;;;;;1.75;0.90;;;12.80;99.90;;;;;;5044602;28;20075;-89
2024/04/03 11:39:18;;;;;;;2.13;1.02;;;12.80;99.90;;;;;;5043936;28;20048;-89
2024/04/03 11:41:45;;;;;;;2.13;0.80;;;12.80;99.90;;;;;;5041298;28;20052;-91
2024/04/03 11:44:13;;;;;;;1.73;0.85;;;12.70;99.90;;;;;;5037662;28;20068;-89
2024/04/03 11:46:41;;;;;;;1.60;0.70;;;12.70;99.90;;;;;;5037922;28;20083;-93
2024/04/03 11:49:07;;;;;;;3.70;1.10;;;12.70;99.90;;;;;;5038758;28;20400;-91
2024/04/03 11:51:33;;;;;;;2.33;1.30;;;12.70;99.90;;;;;;5059543;28;20484;-91
2024/04/03 11:53:59;;;;;;;2.15;0.88;;;12.60;99.90;;;;;;5043852;28;20047;-88
2024/04/03 11:56:29;;;;;;;2.38;0.95;;;12.70;99.90;;;;;;5037229;28;20409;-87
2024/04/03 11:58:55;;;;;;;2.15;0.93;;;12.70;99.90;;;;;;5038592;28;20049;-88
2024/04/03 12:01:21;;;;;;;3.28;1.10;;;12.70;99.90;;;;;;5047669;28;20089;-85
2024/04/03 12:03:47;;;;;;;2.47;1.05;;;12.70;99.90;;;;;;5047719;28;20040;-86
2024/04/03 12:06:13;;;;;;;3.03;0.95;;;12.60;99.90;;;;;;5042562;28;20059;-86
2024/04/03 12:08:39;;;;;;;3.92;1.63;;;12.60;99.90;;;;;;5039988;28;20094;-85
2024/04/03 12:11:09;;;;;;;2.40;1.13;;;12.60;99.90;;;;;;5037414;28;20443;-90
2024/04/03 12:13:36;;;;;;;2.15;1.05;;;12.70;99.90;;;;;;5040585;28;20414;-90
2024/04/03 12:16:05;;;;;;;1.50;0.98;;;12.70;99.90;;;;;;5028077;28;20041;-87
2024/04/03 12:18:50;;;;;;;1.40;0.80;;;12.80;99.90;;;;;;5040296;28;20067;-88
2024/04/03 12:21:19;;;;;;;4.47;1.58;;;12.80;99.90;;;;;;5055795;28;20055;-87
2024/04/03 12:23:45;;;;;;;2.20;0.80;;;12.70;99.90;;;;;;5039851;28;20077;-87
2024/04/03 12:26:16;;;;;;;2.92;1.30;;;12.70;99.90;;;;;;5048219;28;20127;-87
2024/04/03 12:28:42;;;;;;;2.90;0.95;;;12.70;99.90;;;;;;5041955;28;20044;-90
2024/04/03 12:31:08;;;;;;;1.27;0.85;;;12.70;99.90;;;;;;5043972;28;20047;-87
2024/04/03 12:33:35;;;;;;;2.75;1.10;;;12.80;99.90;;;;;;5042380;28;20051;-89
2024/04/03 12:36:00;;;;;;;1.65;1.00;;;12.80;99.90;;;;;;5043112;28;20051;-89
2024/04/03 12:38:26;;;;;;;3.85;1.00;;;12.80;99.90;;;;;;5093322;28;20498;-89
2024/04/03 12:40:53;;;;;;;1.95;0.88;;;12.90;99.90;;;;;;5042950;28;20043;-92
2024/04/03 12:43:20;;;;;;;3.03;0.85;;;12.90;99.90;;;;;;5046751;28;20052;-89
2024/04/03 12:45:55;;;;;;;1.58;0.60;;;13.00;99.90;;;;;;5070148;28;20086;-90
2024/04/03 12:48:21;;;;;;;1.35;1.00;;;13.20;99.90;;;;;;5054234;28;20125;-87
2024/04/03 12:50:46;;;;;;;2.20;1.38;;;13.20;99.90;;;;;;5045144;28;20041;-86
2024/04/03 12:53:15;;;;;;;1.75;1.00;;;13.20;99.90;;;;;;5043545;28;20076;-87